sensor_id;sensor_type;location;lat;lon;timestamp;pressure;altitude;pressure_sealevel;temperature;humidity
63097;BME280;49185;42.320;23.198;2024-01-10T00:01:32;95842.16;;;-5.05;100.00
63097;BME280;49185;42.320;23.198;2024-01-10T00:03:57;95842.16;;;-5.05;100.00
63097;BME280;49185;42.320;23.198;2024-01-10T00:06:23;95837.28;;;-4.99;100.00
63097;BME280;49185;42.320;23.198;2024-01-10T00:08:49;95849.28;;;-4.98;100.00
63097;BME280;49185;42.320;23.198;2024-01-10T00:11:15;95847.91;;;-5.02;100.00
63097;BME280;49185;42.320;23.198;2024-01-10T00:13:40;95850.28;;;-5.10;100.00
63097;BME280;49185;42.320;23.198;2024-01-10T00:16:06;95850.91;;;-5.18;100.00
63097;BME280;49185;42.320;23.198;2024-01-10T00:18:31;95851.03;;;-5.19;100.00
63097;BME280;49185;42.320;23.198;2024-01-10T00:20:57;95841.41;;;-5.28;100.00
63097;BME280;49185;42.320;23.198;2024-01-10T00:23:23;95840.31;;;-5.47;100.00
63097;BME280;49185;42.320;23.198;2024-01-10T00:25:48;95850.22;;;-5.63;100.00
63097;BME280;49185;42.320;23.198;2024-01-10T00:28:14;95860.97;;;-5.68;100.00
63097;BME280;49185;42.320;23.198;2024-01-10T00:30:40;95859.78;;;-5.64;100.00
63097;BME280;49185;42.320;23.198;2024-01-10T00:33:05;95854.69;;;-5.54;100.00
63097;BME280;49185;42.320;23.198;2024-01-10T00:35:31;95865.06;;;-5.54;100.00
63097;BME280;49185;42.320;23.198;2024-01-10T00:37:56;95859.03;;;-5.55;100.00
63097;BME280;49185;42.320;23.198;2024-01-10T00:40:22;95864.34;;;-5.56;100.00
63097;BME280;49185;42.320;23.198;2024-01-10T00:42:48;95869.41;;;-5.55;100.00
63097;BME280;49185;42.320;23.198;2024-01-10T00:45:14;95871.31;;;-5.57;100.00
63097;BME280;49185;42.320;23.198;2024-01-10T00:47:39;95873.78;;;-5.55;100.00
63097;BME280;49185;42.320;23.198;2024-01-10T00:50:05;95869.91;;;-5.61;100.00
63097;BME280;49185;42.320;23.198;2024-01-10T00:52:30;95874.38;;;-5.63;100.00
63097;BME280;49185;42.320;23.198;2024-01-10T00:54:56;95870.88;;;-5.73;100.00
63097;BME280;49185;42.320;23.198;2024-01-10T00:57:21;95878.53;;;-5.72;100.00
63097;BME280;49185;42.320;23.198;2024-01-10T00:59:47;95871.78;;;-5.74;100.00
63097;BME280;49185;42.320;23.198;2024-01-10T01:02:12;95878.78;;;-5.86;100.00
63097;BME280;49185;42.320;23.198;2024-01-10T01:04:37;95875.72;;;-5.91;100.00
63097;BME280;49185;42.320;23.198;2024-01-10T01:07:03;95880.19;;;-5.93;100.00
63097;BME280;49185;42.320;23.198;2024-01-10T01:09:28;95878.56;;;-6.05;100.00
63097;BME280;49185;42.320;23.198;2024-01-10T01:11:53;95877.03;;;-6.08;100.00
63097;BME280;49185;42.320;23.198;2024-01-10T01:14:19;95873.50;;;-6.07;100.00
63097;BME280;49185;42.320;23.198;2024-01-10T01:16:44;95870.41;;;-5.89;100.00
63097;BME280;49185;42.320;23.198;2024-01-10T01:19:10;95872.16;;;-5.90;100.00
63097;BME280;49185;42.320;23.198;2024-01-10T01:21:35;95873.13;;;-6.02;100.00
63097;BME280;49185;42.320;23.198;2024-01-10T01:24:00;95865.25;;;-6.01;100.00
63097;BME280;49185;42.320;23.198;2024-01-10T01:26:26;95876.09;;;-5.96;100.00
63097;BME280;49185;42.320;23.198;2024-01-10T01:28:51;95875.13;;;-6.06;100.00
63097;BME280;49185;42.320;23.198;2024-01-10T01:31:16;95885.16;;;-6.01;100.00
63097;BME280;49185;42.320;23.198;2024-01-10T01:33:42;95882.09;;;-6.18;100.00
63097;BME280;49185;42.320;23.198;2024-01-10T01:36:07;95878.06;;;-6.33;100.00
63097;BME280;49185;42.320;23.198;2024-01-10T01:38:33;95878.06;;;-6.33;100.00
63097;BME280;49185;42.320;23.198;2024-01-10T01:40:58;95878.66;;;-6.30;100.00
63097;BME280;49185;42.320;23.198;2024-01-10T01:43:25;95880.28;;;-6.28;100.00
63097;BME280;49185;42.320;23.198;2024-01-10T01:45:52;95877.97;;;-6.32;100.00
63097;BME280;49185;42.320;23.198;2024-01-10T01:48:19;95879.00;;;-6.34;100.00
63097;BME280;49185;42.320;23.198;2024-01-10T01:50:46;95880.28;;;-6.28;100.00
63097;BME280;49185;42.320;23.198;2024-01-10T01:53:15;95876.91;;;-6.06;100.00
63097;BME280;49185;42.320;23.198;2024-01-10T01:55:45;95878.44;;;-6.15;100.00
63097;BME280;49185;42.320;23.198;2024-01-10T01:58:11;95878.09;;;-5.99;100.00
63097;BME280;49185;42.320;23.198;2024-01-10T02:00:37;95870.31;;;-5.99;100.00
63097;BME280;49185;42.320;23.198;2024-01-10T02:03:04;95866.28;;;-5.92;100.00
63097;BME280;49185;42.320;23.198;2024-01-10T02:05:30;95870.25;;;-5.88;100.00
63097;BME280;49185;42.320;23.198;2024-01-10T02:07:55;95867.44;;;-5.85;100.00
63097;BME280;49185;42.320;23.198;2024-01-10T02:10:21;95858.25;;;-5.78;100.00
63097;BME280;49185;42.320;23.198;2024-01-10T02:12:46;95853.06;;;-5.78;100.00
63097;BME280;49185;42.320;23.198;2024-01-10T02:15:13;95855.88;;;-5.81;100.00
63097;BME280;49185;42.320;23.198;2024-01-10T02:17:39;95856.97;;;-5.83;100.00
63097;BME280;49185;42.320;23.198;2024-01-10T02:20:14;95856.75;;;-5.80;100.00
63097;BME280;49185;42.320;23.198;2024-01-10T02:22:40;95844.34;;;-5.88;100.00
63097;BME280;49185;42.320;23.198;2024-01-10T02:25:09;95846.38;;;-5.92;100.00
63097;BME280;49185;42.320;23.198;2024-01-10T02:27:39;95839.31;;;-5.89;100.00
63097;BME280;49185;42.320;23.198;2024-01-10T02:30:06;95836.25;;;-5.95;100.00
63097;BME280;49185;42.320;23.198;2024-01-10T02:32:32;95836.63;;;-5.99;100.00
63097;BME280;49185;42.320;23.198;2024-01-10T02:34:58;95838.84;;;-5.95;100.00
63097;BME280;49185;42.320;23.198;2024-01-10T02:37:23;95829.78;;;-6.00;100.00
63097;BME280;49185;42.320;23.198;2024-01-10T02:39:49;95841.59;;;-5.96;100.00
63097;BME280;49185;42.320;23.198;2024-01-10T02:42:15;95841.94;;;-6.01;100.00
63097;BME280;49185;42.320;23.198;2024-01-10T02:44:40;95844.41;;;-5.99;100.00
63097;BME280;49185;42.320;23.198;2024-01-10T02:47:06;95844.41;;;-5.99;100.00
63097;BME280;49185;42.320;23.198;2024-01-10T02:49:32;95846.06;;;-5.98;100.00
63097;BME280;49185;42.320;23.198;2024-01-10T02:51:58;95840.13;;;-5.89;100.00
63097;BME280;49185;42.320;23.198;2024-01-10T02:54:23;95842.34;;;-5.73;100.00
63097;BME280;49185;42.320;23.198;2024-01-10T02:56:49;95839.75;;;-5.73;100.00
63097;BME280;49185;42.320;23.198;2024-01-10T02:59:14;95846.13;;;-5.88;100.00
63097;BME280;49185;42.320;23.198;2024-01-10T03:01:40;95850.13;;;-5.84;100.00
63097;BME280;49185;42.320;23.198;2024-01-10T03:04:05;95852.25;;;-5.78;100.00
63097;BME280;49185;42.320;23.198;2024-01-10T03:06:30;95849.44;;;-5.75;100.00
63097;BME280;49185;42.320;23.198;2024-01-10T03:08:56;95857.44;;;-5.78;100.00
63097;BME280;49185;42.320;23.198;2024-01-10T03:11:22;95853.31;;;-5.81;100.00
63097;BME280;49185;42.320;23.198;2024-01-10T03:13:49;95859.22;;;-5.79;100.00
63097;BME280;49185;42.320;23.198;2024-01-10T03:16:15;95855.44;;;-5.75;100.00
63097;BME280;49185;42.320;23.198;2024-01-10T03:18:40;95865.09;;;-5.77;100.00
63097;BME280;49185;42.320;23.198;2024-01-10T03:21:05;95863.56;;;-5.68;100.00
63097;BME280;49185;42.320;23.198;2024-01-10T03:23:31;95868.00;;;-5.59;100.00
63097;BME280;49185;42.320;23.198;2024-01-10T03:25:57;95865.19;;;-5.56;100.00
63097;BME280;49185;42.320;23.198;2024-01-10T03:28:23;95862.81;;;-5.59;100.00
63097;BME280;49185;42.320;23.198;2024-01-10T03:30:48;95863.63;;;-5.58;100.00
63097;BME280;49185;42.320;23.198;2024-01-10T03:33:14;95866.59;;;-5.51;100.00
63097;BME280;49185;42.320;23.198;2024-01-10T03:35:39;95865.16;;;-5.44;100.00
63097;BME280;49185;42.320;23.198;2024-01-10T03:38:05;95864.44;;;-5.46;100.00
63097;BME280;49185;42.320;23.198;2024-01-10T03:40:30;95860.19;;;-5.47;100.00
63097;BME280;49185;42.320;23.198;2024-01-10T03:42:55;95861.97;;;-5.48;100.00
63097;BME280;49185;42.320;23.198;2024-01-10T03:45:21;95865.19;;;-5.56;100.00
63097;BME280;49185;42.320;23.198;2024-01-10T03:47:46;95864.47;;;-5.58;100.00
63097;BME280;49185;42.320;23.198;2024-01-10T03:50:12;95861.03;;;-5.58;100.00
63097;BME280;49185;42.320;23.198;2024-01-10T03:52:37;95865.66;;;-5.62;100.00
63097;BME280;49185;42.320;23.198;2024-01-10T03:55:03;95862.72;;;-5.57;100.00
63097;BME280;49185;42.320;23.198;2024-01-10T03:57:28;95870.47;;;-5.57;100.00
63097;BME280;49185;42.320;23.198;2024-01-10T03:59:53;95864.84;;;-5.62;100.00
63097;BME280;49185;42.320;23.198;2024-01-10T04:02:19;95866.72;;;-5.64;100.00
63097;BME280;49185;42.320;23.198;2024-01-10T04:04:44;95865.69;;;-5.73;100.00
63097;BME280;49185;42.320;23.198;2024-01-10T04:07:10;95870.03;;;-5.74;100.00
63097;BME280;49185;42.320;23.198;2024-01-10T04:09:35;95859.22;;;-5.79;100.00
63097;BME280;49185;42.320;23.198;2024-01-10T04:12:00;95866.03;;;-5.78;100.00
63097;BME280;49185;42.320;23.198;2024-01-10T04:14:26;95871.59;;;-5.82;100.00
63097;BME280;49185;42.320;23.198;2024-01-10T04:16:53;95876.28;;;-5.87;100.00
63097;BME280;49185;42.320;23.198;2024-01-10T04:19:18;95872.50;;;-5.83;100.00
63097;BME280;49185;42.320;23.198;2024-01-10T04:21:44;95872.53;;;-5.95;100.00
63097;BME280;49185;42.320;23.198;2024-01-10T04:24:09;95883.16;;;-5.98;100.00
63097;BME280;49185;42.320;23.198;2024-01-10T04:26:34;95881.38;;;-5.97;100.00
63097;BME280;49185;42.320;23.198;2024-01-10T04:29:00;95887.03;;;-6.03;100.00
63097;BME280;49185;42.320;23.198;2024-01-10T04:31:25;95883.59;;;-6.04;100.00
63097;BME280;49185;42.320;23.198;2024-01-10T04:33:51;95890.09;;;-5.98;100.00
63097;BME280;49185;42.320;23.198;2024-01-10T04:36:16;95892.56;;;-5.97;100.00
63097;BME280;49185;42.320;23.198;2024-01-10T04:38:41;95898.22;;;-6.03;100.00
63097;BME280;49185;42.320;23.198;2024-01-10T04:41:07;95895.75;;;-6.04;100.00
63097;BME280;49185;42.320;23.198;2024-01-10T04:43:32;95896.09;;;-5.98;100.00
63097;BME280;49185;42.320;23.198;2024-01-10T04:45:57;95895.00;;;-5.95;100.00
63097;BME280;49185;42.320;23.198;2024-01-10T04:48:23;95892.56;;;-5.97;100.00
63097;BME280;49185;42.320;23.198;2024-01-10T04:50:48;95895.84;;;-5.95;100.00
63097;BME280;49185;42.320;23.198;2024-01-10T04:53:14;95898.06;;;-5.90;100.00
63097;BME280;49185;42.320;23.198;2024-01-10T04:55:39;95899.25;;;-5.83;100.00
63097;BME280;49185;42.320;23.198;2024-01-10T04:58:04;95901.84;;;-5.83;100.00
63097;BME280;49185;42.320;23.198;2024-01-10T05:00:30;95901.59;;;-5.80;100.00
63097;BME280;49185;42.320;23.198;2024-01-10T05:02:55;95909.38;;;-5.80;100.00
63097;BME280;49185;42.320;23.198;2024-01-10T05:05:21;95911.84;;;-5.78;100.00
63097;BME280;49185;42.320;23.198;2024-01-10T05:07:46;95917.38;;;-5.83;100.00
63097;BME280;49185;42.320;23.198;2024-01-10T05:10:11;95911.28;;;-5.82;100.00
63097;BME280;49185;42.320;23.198;2024-01-10T05:12:37;95918.09;;;-5.81;100.00
63097;BME280;49185;42.320;23.198;2024-01-10T05:15:02;95925.75;;;-5.79;100.00
63097;BME280;49185;42.320;23.198;2024-01-10T05:17:28;95924.94;;;-5.80;100.00
63097;BME280;49185;42.320;23.198;2024-01-10T05:19:53;95923.03;;;-5.78;100.00
63097;BME280;49185;42.320;23.198;2024-01-10T05:22:18;95918.09;;;-5.81;100.00
63097;BME280;49185;42.320;23.198;2024-01-10T05:24:44;95921.16;;;-5.76;100.00
63097;BME280;49185;42.320;23.198;2024-01-10T05:27:09;95925.28;;;-5.73;100.00
63097;BME280;49185;42.320;23.198;2024-01-10T05:29:34;95919.53;;;-5.77;100.00
63097;BME280;49185;42.320;23.198;2024-01-10T05:32:00;95920.56;;;-5.79;100.00
63097;BME280;49185;42.320;23.198;2024-01-10T05:34:25;95926.81;;;-5.82;100.00
63097;BME280;49185;42.320;23.198;2024-01-10T05:36:50;95923.63;;;-5.85;100.00
63097;BME280;49185;42.320;23.198;2024-01-10T05:39:16;95925.41;;;-5.86;100.00
63097;BME280;49185;42.320;23.198;2024-01-10T05:41:41;95928.34;;;-5.91;100.00
63097;BME280;49185;42.320;23.198;2024-01-10T05:44:07;95927.91;;;-5.96;100.00
63097;BME280;49185;42.320;23.198;2024-01-10T05:46:32;95928.56;;;-5.94;100.00
63097;BME280;49185;42.320;23.198;2024-01-10T05:48:57;95923.78;;;-5.98;100.00
63097;BME280;49185;42.320;23.198;2024-01-10T05:51:23;95926.00;;;-6.05;100.00
63097;BME280;49185;42.320;23.198;2024-01-10T05:53:48;95930.59;;;-6.08;100.00
63097;BME280;49185;42.320;23.198;2024-01-10T05:56:13;95925.31;;;-6.07;100.00
63097;BME280;49185;42.320;23.198;2024-01-10T05:58:39;95929.53;;;-6.06;100.00
63097;BME280;49185;42.320;23.198;2024-01-10T06:01:04;95932.50;;;-5.99;100.00
63097;BME280;49185;42.320;23.198;2024-01-10T06:03:30;95937.91;;;-6.02;100.00
63097;BME280;49185;42.320;23.198;2024-01-10T06:05:55;95941.19;;;-6.00;100.00
63097;BME280;49185;42.320;23.198;2024-01-10T06:08:20;95947.91;;;-5.98;100.00
63097;BME280;49185;42.320;23.198;2024-01-10T06:10:46;95949.19;;;-5.92;100.00
63097;BME280;49185;42.320;23.198;2024-01-10T06:13:11;95951.88;;;-5.94;100.00
63097;BME280;49185;42.320;23.198;2024-01-10T06:15:36;95960.03;;;-5.87;100.00
63097;BME280;49185;42.320;23.198;2024-01-10T06:18:02;95947.06;;;-5.76;100.00
63097;BME280;49185;42.320;23.198;2024-01-10T06:20:27;95951.69;;;-5.68;100.00
63097;BME280;49185;42.320;23.198;2024-01-10T06:22:53;95950.84;;;-5.68;100.00
63097;BME280;49185;42.320;23.198;2024-01-10T06:25:18;95954.03;;;-5.76;100.00
63097;BME280;49185;42.320;23.198;2024-01-10T06:27:43;95959.56;;;-5.58;100.00
63097;BME280;49185;42.320;23.198;2024-01-10T06:30:09;95958.97;;;-5.50;100.00
63097;BME280;49185;42.320;23.198;2024-01-10T06:32:35;95957.06;;;-5.26;100.00
63097;BME280;49185;42.320;23.198;2024-01-10T06:35:00;95951.63;;;-5.11;100.00
63097;BME280;49185;42.320;23.198;2024-01-10T06:37:25;95957.75;;;-4.69;100.00
63097;BME280;49185;42.320;23.198;2024-01-10T06:39:51;95968.13;;;-4.15;100.00
63097;BME280;49185;42.320;23.198;2024-01-10T06:42:16;95961.19;;;-3.84;100.00
63097;BME280;49185;42.320;23.198;2024-01-10T06:44:41;95963.72;;;-3.94;100.00
63097;BME280;49185;42.320;23.198;2024-01-10T06:47:07;95964.72;;;-4.16;100.00
63097;BME280;49185;42.320;23.198;2024-01-10T06:49:32;95966.53;;;-3.86;100.00
63097;BME280;49185;42.320;23.198;2024-01-10T06:51:58;95963.41;;;-3.79;100.00
63097;BME280;49185;42.320;23.198;2024-01-10T06:54:23;95971.25;;;-3.70;100.00
63097;BME280;49185;42.320;23.198;2024-01-10T06:56:48;95970.13;;;-3.06;100.00
63097;BME280;49185;42.320;23.198;2024-01-10T06:59:14;95981.59;;;-3.18;100.00
63097;BME280;49185;42.320;23.198;2024-01-10T07:01:39;95975.84;;;-3.12;100.00
63097;BME280;49185;42.320;23.198;2024-01-10T07:04:05;95979.88;;;-3.38;100.00
63097;BME280;49185;42.320;23.198;2024-01-10T07:06:30;95987.47;;;-3.16;100.00
63097;BME280;49185;42.320;23.198;2024-01-10T07:08:55;95983.91;;;-2.74;100.00
63097;BME280;49185;42.320;23.198;2024-01-10T07:11:21;95988.41;;;-2.67;100.00
63097;BME280;49185;42.320;23.198;2024-01-10T07:13:46;95994.88;;;-2.61;100.00
63097;BME280;49185;42.320;23.198;2024-01-10T07:16:12;95997.72;;;-2.74;100.00
63097;BME280;49185;42.320;23.198;2024-01-10T07:18:37;95996.16;;;-3.06;100.00
63097;BME280;49185;42.320;23.198;2024-01-10T07:21:03;96002.63;;;-2.90;100.00
63097;BME280;49185;42.320;23.198;2024-01-10T07:23:28;96005.19;;;-3.00;100.00
63097;BME280;49185;42.320;23.198;2024-01-10T07:25:53;96011.88;;;-3.17;100.00
63097;BME280;49185;42.320;23.198;2024-01-10T07:28:19;96007.41;;;-3.36;100.00
63097;BME280;49185;42.320;23.198;2024-01-10T07:30:45;96012.34;;;-3.64;100.00
63097;BME280;49185;42.320;23.198;2024-01-10T07:33:11;96011.78;;;-3.67;100.00
63097;BME280;49185;42.320;23.198;2024-01-10T07:35:37;96010.97;;;-3.68;100.00
63097;BME280;49185;42.320;23.198;2024-01-10T07:38:02;96011.63;;;-3.45;100.00
63097;BME280;49185;42.320;23.198;2024-01-10T07:40:27;96019.38;;;-3.23;100.00
63097;BME280;49185;42.320;23.198;2024-01-10T07:42:53;96017.59;;;-3.54;100.00
63097;BME280;49185;42.320;23.198;2024-01-10T07:45:18;96023.50;;;-3.73;100.00
63097;BME280;49185;42.320;23.198;2024-01-10T07:47:44;96015.56;;;-3.50;100.00
63097;BME280;49185;42.320;23.198;2024-01-10T07:50:10;96025.31;;;-3.42;100.00
63097;BME280;49185;42.320;23.198;2024-01-10T07:52:36;96025.59;;;-3.05;100.00
63097;BME280;49185;42.320;23.198;2024-01-10T07:55:02;96019.56;;;-2.45;100.00
63097;BME280;49185;42.320;23.198;2024-01-10T07:57:27;96016.53;;;-2.51;100.00
63097;BME280;49185;42.320;23.198;2024-01-10T07:59:53;96023.59;;;-2.92;100.00
63097;BME280;49185;42.320;23.198;2024-01-10T08:02:19;96024.28;;;-2.90;100.00
63097;BME280;49185;42.320;23.198;2024-01-10T08:04:44;96023.03;;;-2.95;100.00
63097;BME280;49185;42.320;23.198;2024-01-10T08:07:10;96020.34;;;-2.64;100.00
63097;BME280;49185;42.320;23.198;2024-01-10T08:09:35;96030.78;;;-2.74;100.00
63097;BME280;49185;42.320;23.198;2024-01-10T08:12:00;96031.72;;;-2.85;100.00
63097;BME280;49185;42.320;23.198;2024-01-10T08:14:26;96031.09;;;-2.29;97.63
63097;BME280;49185;42.320;23.198;2024-01-10T08:16:51;96025.50;;;-1.38;92.94
63097;BME280;49185;42.320;23.198;2024-01-10T08:19:17;96032.53;;;-1.58;93.76
63097;BME280;49185;42.320;23.198;2024-01-10T08:21:42;96024.69;;;-1.01;89.55
63097;BME280;49185;42.320;23.198;2024-01-10T08:24:08;96016.47;;;-1.06;91.69
63097;BME280;49185;42.320;23.198;2024-01-10T08:26:33;96023.94;;;-0.65;88.26
63097;BME280;49185;42.320;23.198;2024-01-10T08:28:58;96024.00;;;-0.11;84.21
63097;BME280;49185;42.320;23.198;2024-01-10T08:31:24;96031.00;;;0.06;85.47
63097;BME280;49185;42.320;23.198;2024-01-10T08:33:49;96025.78;;;0.06;84.17
63097;BME280;49185;42.320;23.198;2024-01-10T08:36:15;96029.75;;;-0.26;85.00
63097;BME280;49185;42.320;23.198;2024-01-10T08:38:41;96021.50;;;0.23;81.58
63097;BME280;49185;42.320;23.198;2024-01-10T08:41:08;96022.78;;;0.01;81.74
63097;BME280;49185;42.320;23.198;2024-01-10T08:43:33;96028.69;;;0.47;78.46
63097;BME280;49185;42.320;23.198;2024-01-10T08:45:58;96019.75;;;0.58;76.48
63097;BME280;49185;42.320;23.198;2024-01-10T08:48:24;96022.91;;;0.17;80.06
63097;BME280;49185;42.320;23.198;2024-01-10T08:50:50;96021.69;;;0.30;81.23
63097;BME280;49185;42.320;23.198;2024-01-10T08:53:16;96024.47;;;1.15;76.86
63097;BME280;49185;42.320;23.198;2024-01-10T08:55:42;96026.41;;;1.05;78.41
63097;BME280;49185;42.320;23.198;2024-01-10T08:58:07;96033.63;;;1.03;74.82
63097;BME280;49185;42.320;23.198;2024-01-10T09:00:33;96028.03;;;1.06;76.48
63097;BME280;49185;42.320;23.198;2024-01-10T09:02:58;96022.75;;;0.63;80.75
63097;BME280;49185;42.320;23.198;2024-01-10T09:05:23;96030.53;;;0.29;79.79
63097;BME280;49185;42.320;23.198;2024-01-10T09:07:49;96031.69;;;-0.10;82.45
63097;BME280;49185;42.320;23.198;2024-01-10T09:10:14;96026.53;;;0.16;82.06
63097;BME280;49185;42.320;23.198;2024-01-10T09:12:40;96032.22;;;-0.98;83.72
63097;BME280;49185;42.320;23.198;2024-01-10T09:15:05;96034.13;;;-0.90;87.84
63097;BME280;49185;42.320;23.198;2024-01-10T09:17:31;96026.22;;;-0.16;85.64
63097;BME280;49185;42.320;23.198;2024-01-10T09:19:56;96029.88;;;-0.27;82.42
63097;BME280;49185;42.320;23.198;2024-01-10T09:22:21;96027.69;;;-0.50;83.63
63097;BME280;49185;42.320;23.198;2024-01-10T09:24:47;96031.63;;;-1.19;88.70
63097;BME280;49185;42.320;23.198;2024-01-10T09:27:12;96026.00;;;-1.24;87.75
63097;BME280;49185;42.320;23.198;2024-01-10T09:29:38;96030.72;;;-1.38;90.97
63097;BME280;49185;42.320;23.198;2024-01-10T09:32:03;96031.94;;;-1.42;88.92
63097;BME280;49185;42.320;23.198;2024-01-10T09:34:29;96025.91;;;-1.42;90.46
63097;BME280;49185;42.320;23.198;2024-01-10T09:36:54;96017.63;;;-1.28;86.96
63097;BME280;49185;42.320;23.198;2024-01-10T09:39:20;96021.59;;;-1.71;90.81
63097;BME280;49185;42.320;23.198;2024-01-10T09:41:47;96038.88;;;-1.60;88.69
63097;BME280;49185;42.320;23.198;2024-01-10T09:44:13;96029.97;;;-0.83;86.61
63097;BME280;49185;42.320;23.198;2024-01-10T09:46:40;96024.28;;;-0.32;84.82
63097;BME280;49185;42.320;23.198;2024-01-10T09:49:06;96030.34;;;-0.78;82.39
63097;BME280;49185;42.320;23.198;2024-01-10T09:51:33;96018.94;;;-0.59;85.08
63097;BME280;49185;42.320;23.198;2024-01-10T09:54:02;96023.91;;;-0.83;83.23
63097;BME280;49185;42.320;23.198;2024-01-10T09:56:28;96018.41;;;-0.62;81.50
63097;BME280;49185;42.320;23.198;2024-01-10T09:58:55;96012.00;;;-1.33;87.27
63097;BME280;49185;42.320;23.198;2024-01-10T10:01:23;96011.28;;;-0.88;87.63
63097;BME280;49185;42.320;23.198;2024-01-10T10:03:49;95998.69;;;-0.74;87.70
63097;BME280;49185;42.320;23.198;2024-01-10T10:06:15;96007.41;;;-0.84;87.25
63097;BME280;49185;42.320;23.198;2024-01-10T10:08:40;96000.84;;;-0.88;88.66
63097;BME280;49185;42.320;23.198;2024-01-10T10:11:06;95997.19;;;-1.05;90.89
63097;BME280;49185;42.320;23.198;2024-01-10T10:13:31;95999.28;;;-1.08;90.65
63097;BME280;49185;42.320;23.198;2024-01-10T10:15:58;95995.94;;;-1.28;90.10
63097;BME280;49185;42.320;23.198;2024-01-10T10:18:23;95993.66;;;-1.41;91.81
63097;BME280;49185;42.320;23.198;2024-01-10T10:20:49;95993.81;;;-1.15;88.92
63097;BME280;49185;42.320;23.198;2024-01-10T10:23:31;95989.22;;;-1.31;91.67
63097;BME280;49185;42.320;23.198;2024-01-10T10:25:56;95983.91;;;-1.11;89.76
63097;BME280;49185;42.320;23.198;2024-01-10T10:28:21;95977.59;;;-0.91;91.16
63097;BME280;49185;42.320;23.198;2024-01-10T10:30:47;95976.53;;;-0.98;91.90
63097;BME280;49185;42.320;23.198;2024-01-10T10:33:12;95968.03;;;-1.00;91.05
63097;BME280;49185;42.320;23.198;2024-01-10T10:35:38;95960.34;;;-1.02;90.19
63097;BME280;49185;42.320;23.198;2024-01-10T10:38:03;95966.53;;;-1.30;91.39
63097;BME280;49185;42.320;23.198;2024-01-10T10:40:29;95960.50;;;-1.03;92.61
63097;BME280;49185;42.320;23.198;2024-01-10T10:42:55;95941.78;;;-0.99;90.59
63097;BME280;49185;42.320;23.198;2024-01-10T10:45:21;95945.78;;;-0.41;89.91
63097;BME280;49185;42.320;23.198;2024-01-10T10:47:47;95942.78;;;-0.46;87.09
63097;BME280;49185;42.320;23.198;2024-01-10T10:50:13;95933.16;;;-0.63;86.14
63097;BME280;49185;42.320;23.198;2024-01-10T10:52:45;95931.97;;;-0.51;86.72
63097;BME280;49185;42.320;23.198;2024-01-10T10:55:16;95925.81;;;-0.24;87.19
63097;BME280;49185;42.320;23.198;2024-01-10T10:57:44;95921.53;;;-0.07;89.62
63097;BME280;49185;42.320;23.198;2024-01-10T11:00:11;95922.09;;;-0.39;88.79
63097;BME280;49185;42.320;23.198;2024-01-10T11:02:37;95918.41;;;-0.10;88.22
63097;BME280;49185;42.320;23.198;2024-01-10T11:05:03;95914.63;;;-0.16;86.13
63097;BME280;49185;42.320;23.198;2024-01-10T11:07:29;95908.25;;;0.13;86.89
63097;BME280;49185;42.320;23.198;2024-01-10T11:09:55;95905.16;;;0.17;87.15
63097;BME280;49185;42.320;23.198;2024-01-10T11:17:45;95904.13;;;0.10;83.38
63097;BME280;49185;42.320;23.198;2024-01-10T11:20:30;95899.16;;;0.25;84.25
63097;BME280;49185;42.320;23.198;2024-01-10T11:23:16;95894.44;;;0.63;82.96
63097;BME280;49185;42.320;23.198;2024-01-10T11:25:47;95894.81;;;0.85;84.13
63097;BME280;49185;42.320;23.198;2024-01-10T11:28:12;95899.19;;;0.33;83.41
63097;BME280;49185;42.320;23.198;2024-01-10T11:30:51;95891.66;;;0.65;80.05
63097;BME280;49185;42.320;23.198;2024-01-10T11:33:32;95886.28;;;0.66;83.91
63097;BME280;49185;42.320;23.198;2024-01-10T11:36:17;95879.91;;;0.77;84.51
63097;BME280;49185;42.320;23.198;2024-01-10T11:38:48;95876.94;;;0.72;83.36
63097;BME280;49185;42.320;23.198;2024-01-10T11:43:46;95877.25;;;0.69;81.80
63097;BME280;49185;42.320;23.198;2024-01-10T11:46:12;95878.75;;;0.71;81.78
63097;BME280;49185;42.320;23.198;2024-01-10T11:48:38;95874.94;;;1.08;79.65
63097;BME280;49185;42.320;23.198;2024-01-10T11:51:03;95872.59;;;0.89;80.08
63097;BME280;49185;42.320;23.198;2024-01-10T11:53:42;95869.97;;;0.97;81.27
63097;BME280;49185;42.320;23.198;2024-01-10T11:56:12;95869.19;;;1.05;81.46
63097;BME280;49185;42.320;23.198;2024-01-10T11:59:13;95869.13;;;0.37;80.12
63097;BME280;49185;42.320;23.198;2024-01-10T12:01:40;95865.91;;;0.17;85.69
63097;BME280;49185;42.320;23.198;2024-01-10T12:04:07;95865.94;;;-0.09;86.30
63097;BME280;49185;42.320;23.198;2024-01-10T12:06:35;95856.00;;;0.29;85.02
63097;BME280;49185;42.320;23.198;2024-01-10T12:09:00;95864.22;;;0.34;85.20
63097;BME280;49185;42.320;23.198;2024-01-10T12:11:26;95857.81;;;0.37;87.70
63097;BME280;49185;42.320;23.198;2024-01-10T12:13:51;95858.56;;;1.06;82.55
63097;BME280;49185;42.320;23.198;2024-01-10T12:16:16;95852.63;;;1.04;85.83
63097;BME280;49185;42.320;23.198;2024-01-10T12:18:42;95851.53;;;1.31;81.86
63097;BME280;49185;42.320;23.198;2024-01-10T12:21:07;95854.44;;;1.04;80.55
63097;BME280;49185;42.320;23.198;2024-01-10T12:23:33;95843.97;;;1.12;82.71
63097;BME280;49185;42.320;23.198;2024-01-10T12:26:01;95851.63;;;0.97;82.94
63097;BME280;49185;42.320;23.198;2024-01-10T12:28:27;95846.78;;;1.27;82.56
63097;BME280;49185;42.320;23.198;2024-01-10T12:30:52;95839.72;;;1.77;80.15
63097;BME280;49185;42.320;23.198;2024-01-10T12:33:22;95838.53;;;1.87;82.39
63097;BME280;49185;42.320;23.198;2024-01-10T12:36:10;95837.53;;;0.90;83.57
63097;BME280;49185;42.320;23.198;2024-01-10T12:38:38;95838.38;;;0.40;85.77
63097;BME280;49185;42.320;23.198;2024-01-10T12:41:04;95836.38;;;0.25;84.84
63097;BME280;49185;42.320;23.198;2024-01-10T12:43:31;95834.88;;;-0.04;88.02
63097;BME280;49185;42.320;23.198;2024-01-10T12:46:06;95830.22;;;-0.18;90.79
63097;BME280;49185;42.320;23.198;2024-01-10T12:48:33;95834.84;;;-0.12;90.03